Time;durP1;ratioP1;P1;durP2;ratioP2;P2;SDS_P1;SDS_P2;PMS_P1;PMS_P2;Temp;Humidity;BMP_temperature;BMP_pressure;BME280_temperature;BME280_humidity;BME280_pressure;Samples;Min_cycle;Max_cycle;Signal;HPM_P1;HPM_P2
2022/03/31 00:00:23;;;;;;;22.77;8.55;;;;;;;14.04;39.24;94115.00;5007913;28;20025;-63
2022/03/31 00:02:48;;;;;;;22.52;8.90;;;;;;;14.04;39.17;94129.75;5007383;28;20037;-64
2022/03/31 00:05:14;;;;;;;28.83;10.23;;;;;;;13.83;38.81;94089.25;5008409;28;20518;-63
2022/03/31 00:07:53;;;;;;;19.52;8.50;;;;;;;14.06;39.30;94128.63;5007852;28;20029;-59
2022/03/31 00:10:39;;;;;;;20.08;7.85;;;;;;;13.81;40.62;94124.03;5007720;28;20452;-60
2022/03/31 00:13:07;;;;;;;18.00;8.98;;;;;;;13.88;40.20;94125.94;5007378;28;20030;-61
2022/03/31 00:15:33;;;;;;;19.25;8.13;;;;;;;13.77;39.77;94118.31;5007445;28;20510;-61
2022/03/31 00:18:01;;;;;;;17.30;7.35;;;;;;;13.92;40.47;94147.19;5008624;28;20046;-61
2022/03/31 00:20:27;;;;;;;15.38;8.23;;;;;;;13.84;40.35;94147.91;5007585;28;20026;-62
2022/03/31 00:22:53;;;;;;;17.48;7.25;;;;;;;13.79;40.54;94130.19;5007841;28;20160;-65
2022/03/31 00:25:18;;;;;;;15.77;7.25;;;;;;;13.69;39.82;94121.59;5007283;28;20042;-62
2022/03/31 00:27:44;;;;;;;15.77;6.78;;;;;;;13.68;40.06;94122.53;5006811;28;20022;-63
2022/03/31 00:30:12;;;;;;;13.43;6.72;;;;;;;13.64;40.31;94112.59;5007865;28;20033;-63
2022/03/31 00:32:39;;;;;;;18.42;6.97;;;;;;;14.12;39.58;94124.69;5007278;28;20556;-60
2022/03/31 00:35:07;;;;;;;16.85;6.57;;;;;;;14.03;39.99;94115.94;5005896;28;20488;-64
2022/03/31 00:37:32;;;;;;;12.35;6.28;;;;;;;14.02;39.74;94106.56;5007726;28;20022;-62
2022/03/31 00:39:58;;;;;;;14.95;7.13;;;;;;;13.81;39.64;94095.53;5007102;28;20053;-61
2022/03/31 00:42:24;;;;;;;18.02;6.45;;;;;;;13.81;39.95;94075.63;5008282;28;20037;-59
2022/03/31 00:44:50;;;;;;;15.45;6.35;;;;;;;13.75;40.06;94065.81;5007360;28;20052;-62
2022/03/31 00:47:17;;;;;;;18.15;6.28;;;;;;;13.83;39.74;94067.72;5007637;28;20497;-60
2022/03/31 00:49:43;;;;;;;17.13;6.78;;;;;;;13.94;40.64;94076.13;5006465;28;20629;-63
2022/03/31 00:52:08;;;;;;;18.80;6.85;;;;;;;14.11;39.73;94107.47;5005232;28;20034;-61
2022/03/31 00:54:35;;;;;;;21.38;7.30;;;;;;;14.11;39.98;94117.84;5006678;28;20065;-60
2022/03/31 00:57:02;;;;;;;15.70;6.45;;;;;;;13.99;39.51;94112.00;5004911;28;20540;-60
2022/03/31 00:59:29;;;;;;;14.65;6.15;;;;;;;13.99;40.15;94104.22;5006479;28;20026;-62
2022/03/31 01:01:56;;;;;;;18.75;7.18;;;;;;;14.12;39.84;94107.34;5006066;28;20037;-60
2022/03/31 01:04:21;;;;;;;14.68;6.35;;;;;;;14.11;39.95;94103.09;5005964;28;20117;-61
2022/03/31 01:06:47;;;;;;;16.30;6.15;;;;;;;14.10;40.13;94113.59;5006451;28;20079;-61
2022/03/31 01:09:13;;;;;;;16.05;6.30;;;;;;;13.94;40.82;94094.28;5006309;28;20343;-63
2022/03/31 01:11:39;;;;;;;17.58;7.55;;;;;;;13.76;40.42;94078.63;5005926;28;20034;-63
2022/03/31 01:14:06;;;;;;;18.40;6.53;;;;;;;14.02;40.57;94100.53;5006222;28;20026;-62
2022/03/31 01:16:32;;;;;;;17.83;7.55;;;;;;;14.01;40.63;94093.72;5006011;28;20030;-63
2022/03/31 01:19:02;;;;;;;14.82;7.07;;;;;;;13.85;40.90;94071.78;5006609;28;20037;-60
2022/03/31 01:21:27;;;;;;;15.70;6.90;;;;;;;13.61;40.49;94051.53;5006347;28;20045;-62
2022/03/31 01:23:54;;;;;;;14.70;6.15;;;;;;;13.83;41.03;94073.72;5007045;28;20038;-64
2022/03/31 01:26:21;;;;;;;15.82;6.95;;;;;;;13.94;40.84;94088.28;5006475;28;20018;-63
2022/03/31 01:28:47;;;;;;;18.33;7.90;;;;;;;13.87;41.31;94101.00;5006444;28;20032;-61
2022/03/31 01:31:13;;;;;;;16.15;6.70;;;;;;;13.53;41.53;94062.56;5006631;28;20030;-62
2022/03/31 01:33:41;;;;;;;15.85;6.35;;;;;;;13.76;41.08;94067.47;5006204;28;20091;-60
2022/03/31 01:36:07;;;;;;;18.70;7.05;;;;;;;13.93;40.90;94087.44;5005823;28;20033;-61
2022/03/31 01:38:33;;;;;;;16.42;6.70;;;;;;;13.95;41.22;94075.19;5005000;28;20405;-62
2022/03/31 01:40:59;;;;;;;17.70;6.80;;;;;;;13.93;40.27;94076.28;5006010;28;20112;-65
2022/03/31 01:43:25;;;;;;;23.95;14.57;;;;;;;13.76;41.28;94057.09;5007278;28;20633;-62
2022/03/31 01:45:52;;;;;;;47.42;32.88;;;;;;;13.76;41.45;94070.84;5007002;28;20026;-61
2022/03/31 01:48:19;;;;;;;33.47;23.17;;;;;;;13.75;41.50;94063.22;5004413;28;20119;-60
2022/03/31 01:50:45;;;;;;;30.25;21.10;;;;;;;13.88;41.32;94099.22;5005469;28;20464;-60
2022/03/31 01:53:11;;;;;;;34.10;19.25;;;;;;;13.81;42.03;94100.69;5005706;28;20543;-61
2022/03/31 01:55:38;;;;;;;26.42;12.63;;;;;;;13.57;41.72;94068.28;5006854;28;20026;-62
2022/03/31 01:58:04;;;;;;;29.80;10.40;;;;;;;13.44;41.58;94029.72;5006429;28;20030;-60
2022/03/31 02:00:30;;;;;;;20.45;7.68;;;;;;;13.93;40.83;94090.03;5006942;28;20087;-60
2022/03/31 02:02:55;;;;;;;22.73;7.15;;;;;;;13.71;40.74;94048.94;5004796;28;20038;-61
2022/03/31 02:05:21;;;;;;;17.95;7.00;;;;;;;13.79;40.60;94069.78;5005614;28;20032;-60
2022/03/31 02:07:47;;;;;;;17.67;6.43;;;;;;;13.74;41.29;94082.31;5001252;28;20018;-60
2022/03/31 02:10:13;;;;;;;17.63;7.03;;;;;;;13.37;40.98;94019.09;5004215;28;20057;-61
2022/03/31 02:12:41;;;;;;;14.80;6.45;;;;;;;13.69;40.30;94064.59;5005240;28;20028;-61
2022/03/31 02:15:07;;;;;;;22.23;6.18;;;;;;;13.45;40.47;94038.34;5004982;28;20018;-62
2022/03/31 02:17:33;;;;;;;20.95;6.95;;;;;;;13.66;39.99;94062.28;5004285;28;20120;-60
2022/03/31 02:19:58;;;;;;;20.00;6.70;;;;;;;13.74;40.51;94067.59;5004973;28;20104;-60
2022/03/31 02:22:24;;;;;;;17.02;5.93;;;;;;;13.61;40.24;94041.16;5005346;28;20571;-63
2022/03/31 02:24:50;;;;;;;17.45;7.72;;;;;;;13.62;40.60;94049.75;5005491;28;20018;-61
2022/03/31 02:27:15;;;;;;;18.70;8.48;;;;;;;13.55;41.22;94039.13;5004974;28;20143;-62
2022/03/31 02:29:40;;;;;;;20.85;7.30;;;;;;;13.45;41.40;94040.91;5004559;28;20080;-62
2022/03/31 02:32:07;;;;;;;17.67;7.43;;;;;;;13.39;40.87;94030.13;5005440;28;20034;-60
2022/03/31 02:34:33;;;;;;;27.42;8.57;;;;;;;13.50;40.98;94054.28;5005374;28;20053;-61
2022/03/31 02:36:59;;;;;;;22.48;7.50;;;;;;;13.18;41.00;93995.78;5005462;28;20092;-64
2022/03/31 02:39:24;;;;;;;17.27;6.93;;;;;;;13.48;41.21;94038.88;5006432;28;20049;-64
2022/03/31 02:41:50;;;;;;;17.50;7.28;;;;;;;13.49;40.59;94037.91;5005866;28;20620;-62
2022/03/31 02:44:16;;;;;;;17.40;6.88;;;;;;;13.51;40.84;94030.00;5006634;28;20113;-63
2022/03/31 02:46:42;;;;;;;17.08;6.57;;;;;;;13.31;41.33;94016.22;5005195;28;20026;-63
2022/03/31 02:49:08;;;;;;;16.05;7.93;;;;;;;13.33;41.26;94020.34;5003671;28;20065;-63
2022/03/31 02:51:34;;;;;;;18.77;7.40;;;;;;;13.47;41.83;94044.19;5004523;28;20076;-60
2022/03/31 02:56:48;;;;;;;18.58;6.25;;;;;;;13.36;41.68;94045.97;5021520;28;20502;-62
2022/03/31 02:59:13;;;;;;;15.10;7.13;;;;;;;13.27;41.47;94028.63;5021991;28;20042;-62
2022/03/31 03:01:41;;;;;;;16.70;7.60;;;;;;;13.41;41.19;94040.34;5020425;28;20044;-62
2022/03/31 03:04:08;;;;;;;14.02;7.32;;;;;;;13.36;41.83;94032.19;5020268;28;20056;-63
2022/03/31 03:06:33;;;;;;;17.40;6.68;;;;;;;13.34;41.14;94037.50;5022526;28;20512;-62
2022/03/31 03:08:59;;;;;;;18.23;6.45;;;;;;;13.08;41.61;94008.72;5021586;28;20046;-63
2022/03/31 03:11:25;;;;;;;19.70;6.60;;;;;;;13.27;41.78;94046.75;5022451;28;20037;-62
2022/03/31 03:13:51;;;;;;;18.02;6.30;;;;;;;13.22;41.85;94054.91;5021858;28;20072;-63
2022/03/31 03:16:17;;;;;;;14.85;6.72;;;;;;;13.11;41.94;94046.47;5022195;28;20049;-62
2022/03/31 03:18:42;;;;;;;15.52;6.53;;;;;;;13.11;42.09;94046.47;5022135;28;20080;-60
2022/03/31 03:21:08;;;;;;;19.75;8.80;;;;;;;13.12;42.23;94050.69;5021861;28;20142;-60
2022/03/31 03:23:35;;;;;;;22.08;8.18;;;;;;;12.79;42.53;94003.53;5022046;28;20043;-62
2022/03/31 03:26:02;;;;;;;20.80;7.22;;;;;;;12.98;42.39;94038.97;5021213;28;20033;-61
2022/03/31 03:28:28;;;;;;;18.13;7.30;;;;;;;13.02;42.17;94048.13;5019660;28;20030;-61
2022/03/31 03:30:53;;;;;;;17.90;7.00;;;;;;;12.57;42.72;93989.91;5020906;28;20489;-64
2022/03/31 03:33:19;;;;;;;16.17;6.93;;;;;;;12.83;43.09;94023.84;5016282;28;20057;-61
2022/03/31 03:35:45;;;;;;;19.30;7.75;;;;;;;12.84;43.50;94022.09;5003373;28;20026;-60
2022/03/31 03:38:10;;;;;;;21.50;7.75;;;;;;;12.89;42.98;94019.91;5004272;28;20074;-61
2022/03/31 03:40:36;;;;;;;17.02;7.30;;;;;;;12.87;43.48;94030.41;5004637;28;20185;-62
2022/03/31 03:43:02;;;;;;;17.48;8.13;;;;;;;12.73;42.92;94004.09;5005089;28;20037;-62
2022/03/31 03:45:27;;;;;;;19.75;8.02;;;;;;;12.73;42.92;94015.25;5004055;28;20033;-63
2022/03/31 03:47:53;;;;;;;14.68;6.85;;;;;;;12.73;43.35;94002.31;5004490;28;20030;-66
2022/03/31 03:50:18;;;;;;;16.80;7.22;;;;;;;12.57;43.01;93974.38;5004902;28;20038;-63
2022/03/31 03:52:45;;;;;;;18.45;8.07;;;;;;;12.81;43.86;94020.56;5003782;28;20622;-60
2022/03/31 03:55:11;;;;;;;18.48;7.65;;;;;;;12.70;43.74;94010.34;5004383;28;20052;-63
2022/03/31 03:57:38;;;;;;;14.73;7.97;;;;;;;12.74;43.72;94023.81;5005341;28;20030;-63
2022/03/31 04:00:05;;;;;;;14.88;7.28;;;;;;;12.55;43.79;93997.00;5004676;28;20552;-62
2022/03/31 04:02:30;;;;;;;19.17;7.57;;;;;;;12.66;43.65;94038.25;5005040;28;20709;-61
2022/03/31 04:04:56;;;;;;;20.90;6.93;;;;;;;12.66;43.70;94034.84;5006022;28;20027;-64
2022/03/31 04:07:21;;;;;;;14.38;7.95;;;;;;;12.71;43.90;94035.28;5004494;28;20026;-61
2022/03/31 04:09:47;;;;;;;19.55;7.88;;;;;;;12.63;44.34;94015.25;5004811;28;20048;-62
2022/03/31 04:12:13;;;;;;;19.08;8.55;;;;;;;12.69;43.94;94022.47;5010967;28;20034;-62
2022/03/31 04:14:39;;;;;;;16.27;7.72;;;;;;;12.59;44.24;94039.75;5010925;28;20412;-63
2022/03/31 04:17:04;;;;;;;16.30;7.80;;;;;;;12.73;43.74;94035.16;5010892;28;20041;-62
2022/03/31 04:19:30;;;;;;;15.73;7.60;;;;;;;12.75;44.10;94043.56;5011280;28;20044;-61
2022/03/31 04:21:56;;;;;;;15.68;8.02;;;;;;;12.66;43.93;94061.53;5011074;28;20030;-59
2022/03/31 04:24:21;;;;;;;15.05;8.23;;;;;;;12.76;43.63;94058.97;5011507;28;20037;-60
2022/03/31 04:26:47;;;;;;;23.35;8.80;;;;;;;12.63;44.14;94020.41;5011011;28;20113;-60
2022/03/31 04:29:12;;;;;;;17.73;7.38;;;;;;;12.17;43.89;93952.00;5010643;28;20040;-62
2022/03/31 04:31:41;;;;;;;17.90;9.18;;;;;;;12.82;43.98;94066.19;5010940;28;20524;-64
2022/03/31 04:34:08;;;;;;;24.10;9.80;;;;;;;12.79;43.75;94074.22;5011065;28;20030;-63
2022/03/31 04:36:34;;;;;;;18.50;8.82;;;;;;;12.44;44.68;94007.44;5010764;28;20050;-62
2022/03/31 04:39:00;;;;;;;27.88;9.25;;;;;;;12.63;44.24;94048.88;5010455;28;20025;-61
2022/03/31 04:41:25;;;;;;;16.80;8.43;;;;;;;12.73;43.74;94050.66;5010791;28;20034;-63
2022/03/31 04:43:51;;;;;;;24.90;9.90;;;;;;;12.78;44.19;94045.91;5010778;28;20036;-61
2022/03/31 04:46:18;;;;;;;18.92;8.95;;;;;;;12.70;44.23;94036.22;5010519;28;20109;-61
2022/03/31 04:48:44;;;;;;;21.35;8.80;;;;;;;12.74;44.76;94045.34;5008952;28;20034;-61
2022/03/31 04:51:10;;;;;;;19.90;9.52;;;;;;;12.66;46.26;94045.22;5009640;28;20477;-62
2022/03/31 04:53:35;;;;;;;23.00;8.82;;;;;;;12.55;45.08;94004.75;5010305;28;20041;-62
2022/03/31 04:56:01;;;;;;;17.05;8.10;;;;;;;12.90;44.94;94052.56;5010714;28;20029;-62
2022/03/31 04:58:26;;;;;;;15.45;7.78;;;;;;;12.82;45.93;94065.38;5010705;28;20030;-61
2022/03/31 05:00:52;;;;;;;20.17;8.48;;;;;;;12.56;45.17;94021.06;5009397;28;20052;-60
2022/03/31 05:03:17;;;;;;;13.30;8.00;;;;;;;12.78;45.23;94080.34;5009574;28;20030;-62
2022/03/31 05:05:43;;;;;;;21.15;9.25;;;;;;;12.84;44.93;94053.13;5006701;28;20156;-61
2022/03/31 05:08:08;;;;;;;18.73;9.75;;;;;;;12.83;44.44;94061.84;5001557;28;20704;-61
2022/03/31 05:10:34;;;;;;;17.95;8.10;;;;;;;12.81;44.58;94033.50;5006190;28;20037;-59
2022/03/31 05:13:00;;;;;;;18.42;8.57;;;;;;;12.91;45.94;94038.69;5007346;28;20508;-60
2022/03/31 05:15:25;;;;;;;24.65;9.00;;;;;;;12.59;45.83;94016.47;5005008;28;20388;-62
2022/03/31 05:17:51;;;;;;;26.33;9.85;;;;;;;12.81;46.23;94010.22;5008542;28;20041;-65
2022/03/31 05:20:17;;;;;;;13.05;7.10;;;;;;;13.06;44.54;94067.59;5008159;28;20160;-62
2022/03/31 05:22:43;;;;;;;19.73;8.82;;;;;;;12.91;44.62;94043.88;5005349;28;20418;-61
2022/03/31 05:25:10;;;;;;;20.27;8.15;;;;;;;12.79;44.82;94025.06;5005054;28;20041;-62
2022/03/31 05:27:43;;;;;;;16.73;8.65;;;;;;;12.74;45.07;94044.50;5005911;28;20033;-61
2022/03/31 05:30:10;;;;;;;19.90;9.35;;;;;;;12.83;44.57;94038.56;5006581;28;20037;-63
2022/03/31 05:32:36;;;;;;;34.38;11.23;;;;;;;12.93;44.60;94057.50;5002536;28;20041;-61
2022/03/31 05:35:01;;;;;;;23.63;8.32;;;;;;;12.89;45.22;94053.53;5002889;28;20026;-61
2022/03/31 05:37:27;;;;;;;23.85;8.32;;;;;;;13.29;44.50;94091.44;5000125;28;20030;-63
2022/03/31 05:39:52;;;;;;;20.23;8.52;;;;;;;13.20;44.55;94098.25;5001125;28;20109;-62
2022/03/31 05:42:18;;;;;;;23.13;9.07;;;;;;;13.27;45.13;94092.53;5009447;28;20057;-61
2022/03/31 05:44:46;;;;;;;18.20;7.43;;;;;;;13.35;45.62;94106.47;5007787;28;20038;-62
2022/03/31 05:47:12;;;;;;;21.48;8.95;;;;;;;13.41;47.42;94069.69;5005664;28;20026;-61
2022/03/31 05:49:38;;;;;;;22.85;8.48;;;;;;;13.35;45.68;94067.63;5005517;28;20029;-61
2022/03/31 05:52:04;;;;;;;31.40;10.10;;;;;;;13.64;45.74;94078.91;5005880;28;20046;-60
2022/03/31 05:54:30;;;;;;;19.35;8.35;;;;;;;13.70;50.91;94050.69;5009434;28;20709;-67
2022/03/31 05:56:56;;;;;;;23.63;8.85;;;;;;;13.94;47.04;94073.56;5000016;28;20349;-66
2022/03/31 05:59:23;;;;;;;23.33;9.15;;;;;;;13.87;49.14;94030.19;4999578;28;20034;-61
2022/03/31 06:01:48;;;;;;;25.25;10.30;;;;;;;13.96;46.69;94031.94;4996151;28;20034;-63
2022/03/31 06:04:20;;;;;;;26.45;9.15;;;;;;;13.83;47.10;93987.38;4998997;28;20096;-62
2022/03/31 06:06:47;;;;;;;24.50;9.05;;;;;;;14.18;46.39;94001.44;4986762;28;20045;-65
2022/03/31 06:09:14;;;;;;;23.77;9.23;;;;;;;14.28;45.51;93991.81;4987497;28;20037;-66
2022/03/31 06:11:40;;;;;;;29.50;10.13;;;;;;;14.32;45.68;94004.38;4997076;28;20050;-58
2022/03/31 06:14:05;;;;;;;19.00;8.35;;;;;;;14.32;45.98;94008.75;5005583;28;20113;-58
2022/03/31 06:16:31;;;;;;;29.10;9.95;;;;;;;14.10;45.42;93979.66;4994819;28;20026;-59
2022/03/31 06:18:56;;;;;;;20.88;8.98;;;;;;;14.16;46.07;93991.22;4996639;28;20028;-59
2022/03/31 06:21:22;;;;;;;20.80;9.02;;;;;;;14.18;46.45;93985.88;5006881;28;20429;-60
2022/03/31 06:23:48;;;;;;;26.13;10.13;;;;;;;14.16;46.33;93992.00;5008151;28;20037;-61
2022/03/31 06:26:13;;;;;;;26.48;11.15;;;;;;;14.31;46.56;94012.28;5007540;28;20420;-59
2022/03/31 06:28:39;;;;;;;35.25;11.07;;;;;;;14.30;46.83;94028.81;5008030;28;20034;-61
2022/03/31 06:31:05;;;;;;;27.00;11.05;;;;;;;14.07;47.89;94031.78;5007347;28;20038;-60
2022/03/31 06:33:31;;;;;;;20.92;9.80;;;;;;;13.98;48.55;94068.91;5007427;28;20033;-61
2022/03/31 06:35:56;;;;;;;25.95;10.85;;;;;;;13.88;48.70;94070.69;5008335;28;20093;-61
2022/03/31 06:38:21;;;;;;;20.35;9.57;;;;;;;13.99;49.23;94070.53;5007737;28;20040;-63
2022/03/31 06:41:06;;;;;;;24.35;10.18;;;;;;;14.05;49.33;94075.16;5008050;28;20033;-60
2022/03/31 06:43:32;;;;;;;23.38;9.32;;;;;;;13.97;49.19;94062.09;5008283;28;20029;-60
2022/03/31 06:45:58;;;;;;;23.17;9.55;;;;;;;13.92;49.76;94064.28;5008118;28;20064;-60
2022/03/31 06:48:26;;;;;;;23.42;9.65;;;;;;;13.76;49.89;94062.28;5007729;28;20670;-61
2022/03/31 06:50:52;;;;;;;27.00;11.70;;;;;;;13.98;49.83;94084.44;5007035;28;20036;-60
2022/03/31 06:53:18;;;;;;;30.45;11.23;;;;;;;13.78;49.94;94040.44;5008230;28;20548;-62
2022/03/31 06:55:44;;;;;;;31.67;10.05;;;;;;;14.12;49.90;94070.25;5008005;28;20037;-63
2022/03/31 06:58:09;;;;;;;24.02;10.27;;;;;;;13.93;49.79;94038.22;5008337;28;20121;-61
2022/03/31 07:00:35;;;;;;;19.77;9.95;;;;;;;14.22;49.64;94052.06;5007485;28;20033;-61
2022/03/31 07:03:01;;;;;;;31.30;12.88;;;;;;;14.29;49.32;94055.69;5007162;28;20071;-60
2022/03/31 07:05:26;;;;;;;25.08;9.38;;;;;;;14.01;48.88;94011.59;5006505;28;20029;-57
2022/03/31 07:07:52;;;;;;;22.30;9.05;;;;;;;14.60;48.50;94068.44;5007890;28;20231;-60
2022/03/31 07:10:18;;;;;;;24.20;10.68;;;;;;;14.62;47.85;94056.94;5007341;28;20030;-61
2022/03/31 07:12:44;;;;;;;23.70;11.73;;;;;;;14.64;48.19;94051.59;5006891;28;20033;-61
2022/03/31 07:15:10;;;;;;;27.85;11.13;;;;;;;14.47;48.37;94007.28;5005689;28;20030;-60
2022/03/31 07:17:36;;;;;;;24.15;10.80;;;;;;;14.87;48.22;94042.47;5007404;28;20139;-61
2022/03/31 07:20:03;;;;;;;21.65;10.95;;;;;;;15.05;48.16;94058.06;5007833;28;20436;-61
2022/03/31 07:22:29;;;;;;;23.40;11.10;;;;;;;15.00;47.80;94025.69;5005954;28;20100;-62
2022/03/31 07:24:54;;;;;;;34.08;14.25;;;;;;;15.28;47.16;94030.81;5006571;28;20745;-59
2022/03/31 07:27:19;;;;;;;22.75;11.43;;;;;;;15.52;46.62;94025.81;5005852;28;20038;-61
2022/03/31 07:29:46;;;;;;;22.13;10.48;;;;;;;15.51;46.52;94025.97;5003227;28;20191;-61
2022/03/31 07:32:11;;;;;;;34.53;13.02;;;;;;;15.26;47.01;94005.00;5004052;28;20033;-61
2022/03/31 07:34:37;;;;;;;27.00;12.07;;;;;;;15.45;47.03;94027.41;5005574;28;20030;-60
2022/03/31 07:37:05;;;;;;;29.17;11.35;;;;;;;15.76;45.96;94040.00;5001676;28;20031;-59
2022/03/31 07:39:31;;;;;;;30.85;12.98;;;;;;;15.89;45.40;94027.41;5006239;28;20033;-60
2022/03/31 07:41:56;;;;;;;25.23;11.10;;;;;;;15.86;45.17;94014.72;4997855;28;20477;-62
2022/03/31 07:44:22;;;;;;;26.73;13.57;;;;;;;16.14;45.03;94043.97;4997369;28;20117;-59
2022/03/31 07:46:47;;;;;;;30.73;13.82;;;;;;;16.09;45.60;94038.41;5010941;28;20022;-60
2022/03/31 07:49:14;;;;;;;28.13;13.38;;;;;;;15.79;46.37;94031.91;5012043;28;20061;-60
2022/03/31 07:51:39;;;;;;;32.65;13.57;;;;;;;15.68;46.91;94038.13;5007191;28;20050;-63
2022/03/31 07:54:05;;;;;;;29.88;13.45;;;;;;;15.80;46.49;94049.91;4997892;28;20034;-59
2022/03/31 07:56:30;;;;;;;25.95;11.55;;;;;;;15.57;46.33;94035.75;5002840;28;20017;-61
2022/03/31 07:58:56;;;;;;;33.10;13.05;;;;;;;15.69;46.52;94044.97;5000304;28;20066;-59
2022/03/31 08:01:22;;;;;;;24.00;12.07;;;;;;;15.87;46.08;94047.56;5011515;28;20461;-64
2022/03/31 08:03:48;;;;;;;28.17;11.90;;;;;;;15.75;46.31;94022.72;5005086;28;20048;-61
2022/03/31 08:06:14;;;;;;;25.15;11.05;;;;;;;15.80;45.98;94023.13;5003660;28;20034;-61
2022/03/31 08:08:39;;;;;;;26.55;11.55;;;;;;;15.85;45.91;94028.66;4999610;28;20047;-59
2022/03/31 08:11:05;;;;;;;30.08;11.75;;;;;;;16.03;45.28;93989.63;5001350;28;20062;-63
2022/03/31 08:13:30;;;;;;;30.75;13.55;;;;;;;16.13;44.95;93994.69;5000496;28;20089;-58
2022/03/31 08:15:57;;;;;;;27.30;11.60;;;;;;;16.35;44.01;93996.75;5008283;28;20029;-61
2022/03/31 08:18:28;;;;;;;39.55;12.30;;;;;;;15.84;44.20;93954.28;5011345;28;20048;-60
2022/03/31 08:20:56;;;;;;;22.90;11.88;;;;;;;16.38;44.16;94031.22;5000348;28;20049;-59
2022/03/31 08:23:22;;;;;;;24.58;10.68;;;;;;;16.26;43.64;93999.47;5005349;28;20046;-62
2022/03/31 08:25:47;;;;;;;31.13;11.35;;;;;;;16.36;43.17;93987.16;5002943;28;20100;-59
2022/03/31 08:28:13;;;;;;;35.35;12.48;;;;;;;16.76;42.78;94016.06;5001091;28;20028;-62
2022/03/31 08:30:41;;;;;;;29.23;10.95;;;;;;;16.75;42.53;93983.22;5003604;28;20073;-67
2022/03/31 08:33:07;;;;;;;37.10;13.32;;;;;;;17.00;42.34;93981.47;5010613;28;20128;-59
2022/03/31 08:35:32;;;;;;;37.40;12.57;;;;;;;17.42;40.88;93976.13;5010368;28;20121;-59
2022/03/31 08:37:58;;;;;;;40.58;14.20;;;;;;;17.45;40.31;93941.13;5010483;28;20373;-60
2022/03/31 08:40:23;;;;;;;39.80;16.48;;;;;;;17.76;40.00;93956.84;5006897;28;20081;-60
2022/03/31 08:42:49;;;;;;;49.13;17.90;;;;;;;17.56;39.80;93909.50;4991093;28;20038;-59
2022/03/31 08:45:17;;;;;;;27.25;10.73;;;;;;;18.23;38.64;93970.91;5000606;28;20026;-60
2022/03/31 08:47:44;;;;;;;24.58;9.40;;;;;;;18.32;38.24;93961.28;5010885;28;20042;-60
2022/03/31 08:50:10;;;;;;;26.38;9.82;;;;;;;18.34;38.38;93974.97;5010694;28;20038;-61
2022/03/31 08:52:36;;;;;;;48.88;11.50;;;;;;;17.79;38.17;93890.50;5006565;28;20069;-59
2022/03/31 08:55:03;;;;;;;38.58;15.85;;;;;;;18.48;37.92;93966.44;5000712;28;20034;-59
2022/03/31 08:57:47;;;;;;;34.55;11.38;;;;;;;18.52;37.80;93951.22;5003096;28;20053;-60
2022/03/31 09:00:14;;;;;;;24.05;8.18;;;;;;;18.39;37.97;93979.69;5000425;28;20089;-59
2022/03/31 09:02:51;;;;;;;34.10;10.55;;;;;;;18.51;37.21;93928.72;5000380;28;20464;-59
2022/03/31 09:05:16;;;;;;;27.65;10.02;;;;;;;18.92;37.05;93975.50;5009213;28;20544;-61
2022/03/31 09:08:05;;;;;;;23.23;9.27;;;;;;;19.10;36.62;93975.22;5006580;28;20105;-62
2022/03/31 09:10:32;;;;;;;28.73;9.60;;;;;;;19.18;36.42;93974.34;5002429;28;20381;-60
2022/03/31 09:12:59;;;;;;;30.02;10.00;;;;;;;19.08;36.45;93923.13;5004469;28;20153;-62
2022/03/31 09:15:25;;;;;;;26.65;6.85;;;;;;;18.79;36.46;93895.09;5007913;28;20489;-61
2022/03/31 09:17:56;;;;;;;24.02;8.15;;;;;;;19.24;36.04;93966.63;5007684;28;20034;-59
2022/03/31 09:20:21;;;;;;;25.92;8.85;;;;;;;18.81;36.28;93910.59;5008115;28;20028;-61
2022/03/31 09:22:49;;;;;;;27.75;10.50;;;;;;;19.08;36.71;93967.53;5009651;28;20038;-60
2022/03/31 09:25:26;;;;;;;28.75;9.02;;;;;;;19.21;36.50;93960.94;5008335;28;20021;-61
2022/03/31 09:27:52;;;;;;;24.23;7.93;;;;;;;19.37;36.21;93960.81;5009036;28;20402;-63
2022/03/31 09:30:18;;;;;;;33.38;10.50;;;;;;;19.62;35.81;93968.44;5006866;28;20052;-63
2022/03/31 09:32:51;;;;;;;26.20;8.38;;;;;;;19.90;35.10;93966.06;5006413;28;20045;-61
2022/03/31 09:35:24;;;;;;;27.73;9.52;;;;;;;20.31;34.33;93951.72;5009253;28;20044;-60
2022/03/31 09:37:55;;;;;;;22.65;7.65;;;;;;;20.81;33.52;93941.41;5009121;28;20390;-60
2022/03/31 09:40:21;;;;;;;26.25;9.05;;;;;;;21.05;33.21;93937.63;5006524;28;20478;-60
2022/03/31 09:42:58;;;;;;;21.52;7.63;;;;;;;21.45;32.47;93938.00;4994916;28;20401;-61
2022/03/31 09:45:24;;;;;;;26.42;8.55;;;;;;;21.10;32.22;93833.88;5001350;28;20049;-61
2022/03/31 09:47:51;;;;;;;25.83;8.68;;;;;;;21.85;31.85;93919.94;5009263;28;20061;-60
2022/03/31 09:50:19;;;;;;;32.78;8.13;;;;;;;21.85;31.34;93899.72;5000530;28;20096;-61
2022/03/31 09:52:45;;;;;;;27.17;9.07;;;;;;;21.54;31.24;93858.19;5008497;28;20046;-60
2022/03/31 09:55:11;;;;;;;19.02;7.85;;;;;;;22.27;34.94;93930.44;5009063;28;20030;-59
2022/03/31 09:57:39;;;;;;;24.02;9.00;;;;;;;22.83;32.60;93898.72;5008320;28;20113;-59
2022/03/31 10:00:06;;;;;;;18.90;7.65;;;;;;;23.15;33.05;93920.03;5004535;28;20136;-62
2022/03/31 10:02:34;;;;;;;15.55;5.10;;;;;;;22.11;31.16;93916.63;5006551;28;20127;-66
2022/03/31 10:05:00;;;;;;;18.75;7.13;;;;;;;21.91;32.72;93892.13;5008696;28;20072;-66
2022/03/31 10:07:26;;;;;;;18.25;7.10;;;;;;;23.34;33.34;93922.91;5005288;28;20386;-60
2022/03/31 10:09:52;;;;;;;23.23;8.40;;;;;;;23.74;28.24;93843.91;4995894;28;20489;-60
2022/03/31 10:12:28;;;;;;;23.02;7.07;;;;;;;24.51;27.84;93918.63;4989373;28;20116;-64
2022/03/31 10:15:01;;;;;;;20.73;7.00;;;;;;;24.30;27.67;93901.31;5002347;28;20030;-62
2022/03/31 10:17:28;;;;;;;24.70;7.32;;;;;;;23.83;28.30;93932.22;4991561;28;20208;-65
2022/03/31 10:19:54;;;;;;;27.00;11.18;;;;;;;23.65;28.76;93923.06;4989509;28;20116;-66
2022/03/31 10:25:12;;;;;;;22.63;6.28;;;;;;;23.02;29.07;93925.25;4988472;28;20053;-61
2022/03/31 10:27:45;;;;;;;17.48;6.22;;;;;;;22.64;29.78;93915.25;5008152;28;20044;-59
2022/03/31 10:30:19;;;;;;;24.38;6.43;;;;;;;22.18;30.39;93899.09;5007044;28;20112;-63
2022/03/31 10:32:56;;;;;;;21.67;5.50;;;;;;;20.70;32.89;93919.16;5006784;28;20084;-62
2022/03/31 10:35:27;;;;;;;22.17;6.13;;;;;;;20.71;32.62;93878.84;5008269;28;20022;-61
2022/03/31 10:37:53;;;;;;;19.75;6.65;;;;;;;21.11;32.11;93890.50;5008307;28;20107;-61
2022/03/31 10:40:34;;;;;;;23.55;6.68;;;;;;;21.67;31.25;93886.31;5007062;28;20033;-63
2022/03/31 10:43:01;;;;;;;22.13;6.25;;;;;;;22.98;29.31;93874.91;5008227;28;20036;-60
2022/03/31 10:45:38;;;;;;;25.77;8.93;;;;;;;22.48;29.94;93887.50;5001043;28;20037;-62
2022/03/31 10:48:22;;;;;;;23.60;6.88;;;;;;;22.09;30.68;93875.84;4990541;28;20137;-61
2022/03/31 10:51:10;;;;;;;26.20;7.63;;;;;;;21.97;31.09;93865.91;5002147;28;20129;-62
2022/03/31 10:53:41;;;;;;;21.05;6.53;;;;;;;22.07;30.85;93859.47;4999710;28;20070;-61
2022/03/31 10:56:25;;;;;;;26.40;8.88;;;;;;;22.43;30.50;93869.75;4998946;28;20084;-63
2022/03/31 10:58:55;;;;;;;27.73;8.95;;;;;;;22.58;29.68;93851.19;4992308;28;20446;-60
2022/03/31 11:01:23;;;;;;;24.33;6.18;;;;;;;22.67;29.62;93865.75;4988976;28;20125;-69
2022/03/31 11:03:50;;;;;;;20.05;6.57;;;;;;;22.81;29.72;93879.72;4986650;28;20161;-59
2022/03/31 11:06:18;;;;;;;26.70;7.95;;;;;;;23.07;29.36;93878.16;4995841;28;20041;-63
2022/03/31 11:08:48;;;;;;;23.20;8.25;;;;;;;22.87;29.56;93868.41;4992818;28;20398;-64
2022/03/31 11:11:34;;;;;;;24.20;5.22;;;;;;;22.58;30.49;93869.59;4991570;28;20038;-61
2022/03/31 11:14:09;;;;;;;23.33;7.38;;;;;;;22.14;30.71;93842.75;4989652;28;20051;-60
2022/03/31 11:16:37;;;;;;;19.40;6.55;;;;;;;22.37;30.36;93854.78;4996247;28;20030;-60
2022/03/31 11:19:05;;;;;;;25.80;7.40;;;;;;;22.05;30.91;93849.16;5002878;28;20588;-62
2022/03/31 11:21:39;;;;;;;21.83;5.63;;;;;;;21.56;31.84;93844.88;4991606;28;20037;-62
2022/03/31 11:24:06;;;;;;;26.23;7.28;;;;;;;21.34;31.99;93857.22;5000966;28;20053;-61
2022/03/31 11:26:40;;;;;;;31.77;9.07;;;;;;;22.17;31.06;93859.94;4990626;28;20030;-60
2022/03/31 11:29:14;;;;;;;22.15;7.47;;;;;;;22.58;30.31;93877.47;5001715;28;20493;-59